Terminal Aerodrome Forecast
Issued by NWS

Home | Current Version | Previous Version | Graphics & Text | Print | Product List | Glossary On
Versions: 1 2 3 4 5 6 7 8 9 10 11 12 13 14 15 16 17 18 19 20
988
FTUS43 KTOP 291720
TAFMHK
TAF
KMHK 291720Z 2918/3018 04014G22KT 4SM -SHRA BR BKN008
      TEMPO 2920/2923 SCT008 BKN014
     FM300500 36010KT 3SM BR VCSH OVC003=

USA.gov is the U.S. government's official web portal to all federal, state and local government web resources and services.